createdAt,value
2023-02-22T00:04:21.028Z,100255.56
2023-02-22T00:06:49.781Z,100259.06
2023-02-22T00:09:20.743Z,100257.16
2023-02-22T00:11:48.783Z,100256.44
2023-02-22T00:14:20.390Z,100256.47
2023-02-22T00:16:48.047Z,100255.22
2023-02-22T00:19:16.976Z,100249.34
2023-02-22T00:21:45.191Z,100255.66
2023-02-22T00:24:23.112Z,100253.84
2023-02-22T00:26:52.005Z,100247.34
2023-02-22T00:29:20.728Z,100251.00
2023-02-22T00:31:48.417Z,100251.09
2023-02-22T00:34:17.333Z,100244.94
2023-02-22T00:36:48.234Z,100255.22
2023-02-22T00:39:15.925Z,100250.47
2023-02-22T00:41:43.733Z,100250.75
2023-02-22T00:44:11.666Z,100252.81
2023-02-22T00:46:39.185Z,100254.72
2023-02-22T00:49:06.711Z,100248.56
2023-02-22T00:51:35.521Z,100245.91
2023-02-22T00:54:03.029Z,100252.97
2023-02-22T00:56:30.552Z,100243.94
2023-02-22T00:58:58.087Z,100243.59
2023-02-22T01:01:25.620Z,100240.19
2023-02-22T01:03:53.080Z,100236.41
2023-02-22T01:06:21.019Z,100234.41
2023-02-22T01:08:50.030Z,100232.84
2023-02-22T01:11:18.554Z,100238.25
2023-02-22T01:13:46.268Z,100234.94
2023-02-22T01:16:13.786Z,100225.28
2023-02-22T01:18:41.286Z,100235.22
2023-02-22T01:21:08.935Z,100241.44
2023-02-22T01:23:36.577Z,100229.00
2023-02-22T01:26:06.077Z,100226.38
2023-02-22T01:28:33.801Z,100232.66
2023-02-22T01:31:02.844Z,100235.25
2023-02-22T01:33:30.489Z,100230.84
2023-02-22T01:35:58.113Z,100231.69
2023-02-22T01:38:26.101Z,100225.53
2023-02-22T01:40:53.707Z,100225.59
2023-02-22T01:43:24.255Z,100219.38
2023-02-22T01:45:57.336Z,100215.81
2023-02-22T01:48:29.618Z,100210.50
2023-02-22T01:51:00.972Z,100211.38
2023-02-22T01:53:31.582Z,100209.59
2023-02-22T01:55:59.630Z,100213.16
2023-02-22T01:58:29.667Z,100209.56
2023-02-22T02:00:58.539Z,100211.03
2023-02-22T02:03:29.395Z,100204.75
2023-02-22T02:06:00.038Z,100200.31
2023-02-22T02:08:36.019Z,100208.44
2023-02-22T02:11:05.923Z,100205.97
2023-02-22T02:13:36.672Z,100207.78
2023-02-22T02:16:04.615Z,100198.94
2023-02-22T02:18:32.717Z,100203.38
2023-02-22T02:21:22.081Z,100191.94
2023-02-22T02:24:19.855Z,100188.41
2023-02-22T02:27:03.574Z,100191.97
2023-02-22T02:29:52.248Z,100188.41
2023-02-22T02:32:41.892Z,100185.75
2023-02-22T02:35:14.319Z,100180.50
2023-02-22T02:37:48.892Z,100181.44
2023-02-22T02:40:21.580Z,100173.47
2023-02-22T02:42:54.653Z,100178.78
2023-02-22T02:45:24.990Z,100173.50
2023-02-22T02:47:58.586Z,100169.06
2023-02-22T02:50:29.070Z,100164.69
2023-02-22T02:52:58.729Z,100169.09
2023-02-22T02:55:26.520Z,100156.72
2023-02-22T02:57:53.990Z,100162.13
2023-02-22T03:00:25.801Z,100163.81
2023-02-22T03:03:03.172Z,100158.34
2023-02-22T03:05:42.949Z,100156.75
2023-02-22T03:08:14.688Z,100162.16
2023-02-22T03:10:54.116Z,100159.50
2023-02-22T03:13:28.826Z,100165.69
2023-02-22T03:16:03.608Z,100157.72
2023-02-22T03:18:43.019Z,100157.75
2023-02-22T03:21:16.543Z,100155.97
2023-02-22T03:23:46.687Z,100156.88
2023-02-22T03:26:19.389Z,100160.41
2023-02-22T03:28:48.810Z,100153.34
2023-02-22T03:31:19.496Z,100148.94
2023-02-22T03:33:52.145Z,100150.69
2023-02-22T03:36:24.931Z,100152.44
2023-02-22T03:38:55.457Z,100155.97
2023-02-22T03:41:25.153Z,100148.03
2023-02-22T03:43:55.929Z,100158.63
2023-02-22T03:46:24.799Z,100155.94
2023-02-22T03:48:57.209Z,100159.41
2023-02-22T03:51:24.934Z,100163.84
2023-02-22T03:53:53.670Z,100161.13
2023-02-22T03:56:24.527Z,100163.41
2023-02-22T03:58:52.621Z,100165.94
2023-02-22T04:01:23.580Z,100164.31
2023-02-22T04:03:51.089Z,100164.78
2023-02-22T04:06:19.968Z,100168.22
2023-02-22T04:08:47.445Z,100159.44
2023-02-22T04:11:15.349Z,100156.88
2023-02-22T04:13:42.939Z,100160.34
2023-02-22T04:16:10.655Z,100153.19
2023-02-22T04:18:38.211Z,100161.19
2023-02-22T04:21:05.978Z,100154.19
2023-02-22T04:23:34.749Z,100155.88
2023-02-22T04:26:03.464Z,100152.38
2023-02-22T04:28:30.950Z,100164.75
2023-02-22T04:30:58.429Z,100162.88
2023-02-22T04:33:25.957Z,100160.03
2023-02-22T04:35:53.458Z,100161.72
2023-02-22T04:38:20.989Z,100149.34
2023-02-22T04:40:49.856Z,100149.31
2023-02-22T04:43:17.441Z,100152.91
2023-02-22T04:45:44.965Z,100158.25
2023-02-22T04:48:12.482Z,100148.53
2023-02-22T04:50:40.555Z,100156.56
2023-02-22T04:53:08.046Z,100148.66
2023-02-22T04:55:35.523Z,100145.28
2023-02-22T04:58:04.358Z,100143.50
2023-02-22T05:00:31.824Z,100140.84
2023-02-22T05:02:59.351Z,100139.97
2023-02-22T05:05:26.830Z,100147.09
2023-02-22T05:07:54.351Z,100139.19
2023-02-22T05:10:22.017Z,100140.03
2023-02-22T05:12:49.598Z,100145.34
2023-02-22T05:15:20.468Z,100142.75
2023-02-22T05:17:48.031Z,100135.69
2023-02-22T05:20:19.862Z,100134.78
2023-02-22T05:22:47.415Z,100138.31
2023-02-22T05:25:15.062Z,100131.25
2023-02-22T05:27:42.531Z,100131.25
2023-02-22T05:30:12.668Z,100130.34
2023-02-22T05:32:41.462Z,100126.75
2023-02-22T05:35:09.257Z,100125.03
2023-02-22T05:37:39.233Z,100125.03
2023-02-22T05:40:07.682Z,100126.84
2023-02-22T05:42:35.199Z,100128.59
2023-02-22T05:45:03.643Z,100126.81
2023-02-22T05:47:31.112Z,100126.81
2023-02-22T05:49:59.922Z,100125.94
2023-02-22T05:52:27.672Z,100129.47
2023-02-22T05:54:55.147Z,100125.06
2023-02-22T05:57:22.776Z,100127.72
2023-02-22T05:59:50.808Z,100127.69
2023-02-22T06:02:18.428Z,100116.22
2023-02-22T06:04:46.034Z,100119.56
2023-02-22T06:07:15.613Z,100121.25
2023-02-22T06:09:43.436Z,100126.69
2023-02-22T06:12:11.229Z,100126.56
2023-02-22T06:14:40.879Z,100127.56
2023-02-22T06:17:08.376Z,100133.81
2023-02-22T06:19:35.978Z,100126.81
2023-02-22T06:22:03.507Z,100122.41
2023-02-22T06:24:32.375Z,100125.94
2023-02-22T06:27:01.320Z,100126.72
2023-02-22T06:29:29.634Z,100131.09
2023-02-22T06:31:57.190Z,100127.59
2023-02-22T06:34:24.721Z,100130.06
2023-02-22T06:36:52.180Z,100128.41
2023-02-22T06:39:19.805Z,100129.25
2023-02-22T06:41:50.424Z,100128.50
2023-02-22T06:44:17.986Z,100125.00
2023-02-22T06:46:51.139Z,100124.09
2023-02-22T06:49:19.229Z,100130.09
2023-02-22T06:51:47.011Z,100126.59
2023-02-22T06:54:15.018Z,100128.41
2023-02-22T06:56:42.503Z,100125.81
2023-02-22T06:59:11.333Z,100125.69
2023-02-22T07:01:41.458Z,100122.91
2023-02-22T07:04:09.026Z,100128.06
2023-02-22T07:06:37.292Z,100120.16
2023-02-22T07:09:05.110Z,100124.34
2023-02-22T07:11:32.667Z,100127.00
2023-02-22T07:14:00.155Z,100120.91
2023-02-22T07:16:29.019Z,100122.69
2023-02-22T07:18:56.582Z,100116.56
2023-02-22T07:21:24.727Z,100121.81
2023-02-22T07:23:53.831Z,100115.44
2023-02-22T07:26:21.675Z,100117.19
2023-02-22T07:28:49.762Z,100111.84
2023-02-22T07:31:18.200Z,100111.81
2023-02-22T07:33:48.337Z,100111.69
2023-02-22T07:36:17.848Z,100110.75
2023-02-22T07:38:45.644Z,100115.06
2023-02-22T07:41:13.264Z,100111.47
2023-02-22T07:43:40.823Z,100111.38
2023-02-22T07:46:08.476Z,100111.31
2023-02-22T07:48:35.965Z,100109.53
2023-02-22T07:51:05.934Z,100120.13
2023-02-22T07:53:34.364Z,100112.88
2023-02-22T07:56:03.119Z,100111.91
2023-02-22T07:58:31.645Z,100108.44
2023-02-22T08:01:01.985Z,100109.09
2023-02-22T08:03:34.266Z,100110.94
2023-02-22T08:06:02.960Z,100113.22
2023-02-22T08:08:31.810Z,100107.06
2023-02-22T08:10:59.351Z,100107.06
2023-02-22T08:13:26.857Z,100104.84
2023-02-22T08:15:55.221Z,100108.53
2023-02-22T08:18:25.954Z,100106.69
2023-02-22T08:20:54.755Z,100102.03
2023-02-22T08:23:25.209Z,100106.31
2023-02-22T08:25:54.364Z,100095.09
2023-02-22T08:28:23.531Z,100099.22
2023-02-22T08:30:51.639Z,100096.75
2023-02-22T08:33:20.443Z,100099.34
2023-02-22T08:35:50.035Z,100091.47
2023-02-22T08:38:20.410Z,100096.03
2023-02-22T08:40:48.994Z,100089.53
2023-02-22T08:43:18.238Z,100097.50
2023-02-22T08:45:46.379Z,100096.88
2023-02-22T08:48:14.982Z,100102.28
2023-02-22T08:50:42.794Z,100092.78
2023-02-22T08:53:11.467Z,100091.34
2023-02-22T08:55:40.122Z,100094.38
2023-02-22T08:58:09.677Z,100089.50
2023-02-22T09:00:39.498Z,100082.50
2023-02-22T09:03:08.227Z,100089.19
2023-02-22T09:05:35.772Z,100089.13
2023-02-22T09:08:03.600Z,100081.94
2023-02-22T09:10:32.653Z,100089.06
2023-02-22T09:13:01.178Z,100080.34
2023-02-22T09:15:29.556Z,100085.50
2023-02-22T09:17:58.446Z,100084.41
2023-02-22T09:20:26.354Z,100073.19
2023-02-22T09:22:54.699Z,100074.81
2023-02-22T09:25:22.624Z,100072.19
2023-02-22T09:27:50.869Z,100068.84
2023-02-22T09:30:23.518Z,100070.22
2023-02-22T09:32:52.154Z,100058.84
2023-02-22T09:35:26.829Z,100069.38
2023-02-22T09:37:55.847Z,100068.50
2023-02-22T09:40:29.932Z,100066.84
2023-02-22T09:43:11.950Z,100070.63
2023-02-22T09:45:48.168Z,100065.72
2023-02-22T09:48:21.952Z,100063.16
2023-02-22T09:50:52.574Z,100064.31
2023-02-22T09:53:29.452Z,100052.09
2023-02-22T09:56:00.449Z,100052.75
2023-02-22T09:58:33.652Z,100050.94
2023-02-22T10:01:17.631Z,100046.75
2023-02-22T10:03:51.121Z,100041.34
2023-02-22T10:06:22.750Z,100041.75
2023-02-22T10:08:54.593Z,100038.41
2023-02-22T10:11:34.505Z,100033.19
2023-02-22T10:14:09.809Z,100037.34
2023-02-22T10:16:41.141Z,100024.47
2023-02-22T10:19:18.657Z,100033.06
2023-02-22T10:21:55.252Z,100033.50
2023-02-22T10:24:32.207Z,100033.66
2023-02-22T10:27:00.147Z,100019.44
2023-02-22T10:29:32.579Z,100020.31
2023-02-22T10:32:03.045Z,100021.13
2023-02-22T10:34:34.261Z,100016.75
2023-02-22T10:37:24.618Z,100003.41
2023-02-22T10:39:54.716Z,100007.47
2023-02-22T10:42:23.967Z,100006.84
2023-02-22T10:44:51.488Z,100007.75
2023-02-22T10:47:21.837Z,100005.09
2023-02-22T10:49:52.302Z,100013.31
2023-02-22T10:52:26.198Z,100004.34
2023-02-22T10:55:01.019Z,100004.94
2023-02-22T10:57:35.958Z,100000.47
2023-02-22T11:00:19.554Z,100001.78
2023-02-22T11:02:54.603Z,100001.19
2023-02-22T11:05:30.383Z,99999.75
2023-02-22T11:08:19.988Z,99997.06
2023-02-22T11:10:48.184Z,99984.06
2023-02-22T11:13:20.227Z,99989.44
2023-02-22T11:15:47.981Z,99996.59
2023-02-22T11:18:25.084Z,99991.78
2023-02-22T11:21:04.217Z,99989.09
2023-02-22T11:23:33.540Z,99981.97
2023-02-22T11:26:03.694Z,99988.53
2023-02-22T11:28:32.810Z,99987.03
2023-02-22T11:31:11.087Z,99976.56
2023-02-22T11:33:38.950Z,99981.97
2023-02-22T11:36:10.200Z,99975.19
2023-02-22T11:38:40.092Z,99975.38
2023-02-22T11:41:18.794Z,99976.03
2023-02-22T11:43:47.916Z,99968.06
2023-02-22T11:46:18.816Z,99963.94
2023-02-22T11:48:55.286Z,99964.03
2023-02-22T11:51:30.967Z,99967.41
2023-02-22T11:54:31.175Z,99951.44
2023-02-22T11:57:07.994Z,99948.78
2023-02-22T11:59:40.660Z,99962.44
2023-02-22T12:02:18.464Z,99947.75
2023-02-22T12:04:56.632Z,99950.31
2023-02-22T12:07:33.317Z,99952.34
2023-02-22T12:10:09.961Z,99940.75
2023-02-22T12:12:55.675Z,99939.06
2023-02-22T12:15:29.883Z,99934.22
2023-02-22T12:18:02.123Z,99935.03
2023-02-22T12:20:33.348Z,99935.28
2023-02-22T12:23:06.980Z,99937.69
2023-02-22T12:25:38.825Z,99940.84
2023-02-22T12:28:24.314Z,99926.25
2023-02-22T12:30:56.475Z,99929.63
2023-02-22T12:33:26.961Z,99924.09
2023-02-22T12:35:56.652Z,99929.47
2023-02-22T12:38:31.109Z,99931.59
2023-02-22T12:41:04.795Z,99935.44
2023-02-22T12:43:35.558Z,99928.88
2023-02-22T12:46:05.653Z,99931.19
2023-02-22T12:48:41.885Z,99924.47
2023-02-22T12:51:22.344Z,99926.47
2023-02-22T12:53:57.225Z,99920.94
2023-02-22T12:56:31.804Z,99904.13
2023-02-22T12:59:03.882Z,99899.94
2023-02-22T13:01:36.688Z,99898.72
2023-02-22T13:04:19.506Z,99897.69
2023-02-22T13:06:58.087Z,99895.53
2023-02-22T13:09:59.950Z,99901.59
2023-02-22T13:12:36.138Z,99891.13
2023-02-22T13:15:09.437Z,99896.59
2023-02-22T13:17:42.368Z,99888.03
2023-02-22T13:20:14.642Z,99886.75
2023-02-22T13:22:46.182Z,99891.97
2023-02-22T13:25:19.826Z,99886.03
2023-02-22T13:27:52.465Z,99886.13
2023-02-22T13:30:21.340Z,99880.22
2023-02-22T13:33:19.180Z,99881.94
2023-02-22T13:36:03.072Z,99881.47
2023-02-22T13:38:45.217Z,99862.59
2023-02-22T13:41:34.913Z,99874.75
2023-02-22T13:44:35.193Z,99871.19
2023-02-22T13:47:39.918Z,99863.75
2023-02-22T13:50:30.178Z,99869.97
2023-02-22T13:52:59.216Z,99859.72
2023-02-22T13:55:34.644Z,99856.56
2023-02-22T13:58:04.912Z,99847.75
2023-02-22T14:00:48.270Z,99854.44
2023-02-22T14:03:36.217Z,99854.06
2023-02-22T14:06:13.076Z,99853.22
2023-02-22T14:08:50.340Z,99855.25
2023-02-22T14:11:56.797Z,99857.41
2023-02-22T14:14:24.776Z,99852.16
2023-02-22T14:17:25.053Z,99847.16
2023-02-22T14:20:02.532Z,99843.84
2023-02-22T14:22:31.002Z,99842.97
2023-02-22T14:24:59.399Z,99844.44
2023-02-22T14:27:40.511Z,99837.72
2023-02-22T14:30:24.782Z,99834.47
2023-02-22T14:32:53.833Z,99831.84
2023-02-22T14:35:30.019Z,99832.94
2023-02-22T14:38:04.133Z,99834.34
2023-02-22T14:40:33.682Z,99837.16
2023-02-22T14:43:03.413Z,99827.84
2023-02-22T14:45:33.350Z,99811.88
2023-02-22T14:48:11.601Z,99826.16
2023-02-22T14:50:45.843Z,99827.22
2023-02-22T14:53:21.127Z,99826.03
2023-02-22T14:55:53.316Z,99815.25
2023-02-22T14:58:23.347Z,99818.09
2023-02-22T15:00:52.862Z,99825.44
2023-02-22T15:03:32.682Z,99825.44
2023-02-22T15:06:05.799Z,99820.06
2023-02-22T15:08:34.336Z,99825.91
2023-02-22T15:11:03.442Z,99820.41
2023-02-22T15:13:32.937Z,99816.31
2023-02-22T15:16:02.364Z,99820.16
2023-02-22T15:18:35.425Z,99822.97
2023-02-22T15:21:10.502Z,99817.66
2023-02-22T15:23:44.500Z,99823.06
2023-02-22T15:26:20.258Z,99816.31
2023-02-22T15:28:48.492Z,99818.47
2023-02-22T15:31:25.053Z,99814.69
2023-02-22T15:33:55.445Z,99814.88
2023-02-22T15:36:27.142Z,99821.88
2023-02-22T15:38:56.736Z,99805.28
2023-02-22T15:41:28.747Z,99813.63
2023-02-22T15:44:14.202Z,99810.56
2023-02-22T15:46:48.944Z,99804.72
2023-02-22T15:49:24.624Z,99805.09
2023-02-22T15:52:10.869Z,99808.25
2023-02-22T15:54:44.641Z,99806.78
2023-02-22T15:57:15.655Z,99793.25
2023-02-22T15:59:46.816Z,99798.69
2023-02-22T16:02:30.073Z,99794.66
2023-02-22T16:05:01.682Z,99791.00
2023-02-22T16:07:29.354Z,99795.03
2023-02-22T16:09:57.024Z,99791.41
2023-02-22T16:12:27.627Z,99792.59
2023-02-22T16:15:00.817Z,99795.28
2023-02-22T16:17:36.301Z,99796.56
2023-02-22T16:20:33.471Z,99795.59
2023-02-22T16:23:01.034Z,99801.88
2023-02-22T16:25:33.079Z,99793.25
2023-02-22T16:28:06.084Z,99795.91
2023-02-22T16:30:35.544Z,99799.88
2023-02-22T16:33:06.421Z,99803.72
2023-02-22T16:35:35.656Z,99792.22
2023-02-22T16:38:04.638Z,99797.22
2023-02-22T16:40:34.548Z,99801.13
2023-02-22T16:43:03.786Z,99801.78
2023-02-22T16:45:31.293Z,99806.84
2023-02-22T16:47:59.777Z,99802.53
2023-02-22T16:50:27.464Z,99804.38
2023-02-22T16:52:58.522Z,99809.50
2023-02-22T16:55:26.034Z,99815.22
2023-02-22T16:57:56.362Z,99819.09
2023-02-22T17:00:31.653Z,99817.31
2023-02-22T17:03:02.468Z,99810.97
2023-02-22T17:05:30.270Z,99820.91
2023-02-22T17:07:59.298Z,99820.78
2023-02-22T17:10:27.069Z,99815.09
2023-02-22T17:12:54.890Z,99817.63
2023-02-22T17:15:25.038Z,99815.28
2023-02-22T17:17:54.127Z,99816.03
2023-02-22T17:20:30.004Z,99824.44
2023-02-22T17:23:00.024Z,99825.38
2023-02-22T17:25:31.204Z,99827.13
2023-02-22T17:27:59.008Z,99822.69
2023-02-22T17:30:28.074Z,99820.84
2023-02-22T17:33:03.404Z,99821.38
2023-02-22T17:35:35.084Z,99820.41
2023-02-22T17:38:06.919Z,99822.50
2023-02-22T17:40:35.543Z,99819.38
2023-02-22T17:43:03.245Z,99828.38
2023-02-22T17:45:31.199Z,99825.75
2023-02-22T17:47:59.493Z,99829.31
2023-02-22T17:50:27.610Z,99825.94
2023-02-22T17:52:55.311Z,99826.03
2023-02-22T17:55:24.381Z,99823.44
2023-02-22T17:57:58.209Z,99827.69
2023-02-22T18:00:33.016Z,99830.22
2023-02-22T18:03:02.425Z,99833.47
2023-02-22T18:05:30.812Z,99825.50
2023-02-22T18:07:58.484Z,99834.38
2023-02-22T18:10:27.691Z,99829.16
2023-02-22T18:12:56.712Z,99827.34
2023-02-22T18:15:28.198Z,99838.19
2023-02-22T18:17:56.433Z,99826.56
2023-02-22T18:20:31.248Z,99835.44
2023-02-22T18:22:59.693Z,99831.00
2023-02-22T18:25:28.491Z,99831.88
2023-02-22T18:27:56.286Z,99831.16
2023-02-22T18:30:24.274Z,99825.25
2023-02-22T18:32:52.137Z,99830.34
2023-02-22T18:35:19.755Z,99826.81
2023-02-22T18:37:47.241Z,99831.22
2023-02-22T18:40:18.908Z,99831.28
2023-02-22T18:42:48.009Z,99829.59
2023-02-22T18:45:15.658Z,99829.47
2023-02-22T18:47:45.499Z,99831.34
2023-02-22T18:50:13.813Z,99822.47
2023-02-22T18:52:45.743Z,99829.47
2023-02-22T18:55:14.973Z,99826.88
2023-02-22T18:57:42.889Z,99827.69
2023-02-22T19:00:14.265Z,99822.34
2023-02-22T19:02:43.492Z,99819.31
2023-02-22T19:05:11.280Z,99828.66
2023-02-22T19:07:38.903Z,99824.53
2023-02-22T19:10:07.760Z,99823.72
2023-02-22T19:12:35.603Z,99823.88
2023-02-22T19:15:03.445Z,99825.69
2023-02-22T19:17:32.586Z,99833.63
2023-02-22T19:20:00.100Z,99831.56
2023-02-22T19:22:32.637Z,99836.19
2023-02-22T19:25:01.253Z,99826.88
2023-02-22T19:27:30.314Z,99833.78
2023-02-22T19:29:59.329Z,99827.59
2023-02-22T19:32:27.331Z,99834.38
2023-02-22T19:35:02.077Z,99828.72
2023-02-22T19:37:35.553Z,99832.31
2023-02-22T19:40:06.605Z,99829.22
2023-02-22T19:42:34.373Z,99827.59
2023-02-22T19:45:02.124Z,99824.28
2023-02-22T19:47:29.653Z,99828.72
2023-02-22T19:49:59.926Z,99822.13
2023-02-22T19:52:28.880Z,99828.78
2023-02-22T19:54:56.461Z,99828.63
2023-02-22T19:57:24.800Z,99821.56
2023-02-22T19:59:52.330Z,99823.28
2023-02-22T20:02:22.863Z,99826.44
2023-02-22T20:04:51.271Z,99821.31
2023-02-22T20:07:20.311Z,99824.94
2023-02-22T20:09:49.721Z,99833.06
2023-02-22T20:12:17.364Z,99828.75
2023-02-22T20:14:46.170Z,99827.59
2023-02-22T20:17:13.689Z,99832.34
2023-02-22T20:19:42.422Z,99833.16
2023-02-22T20:22:13.288Z,99823.34
2023-02-22T20:24:42.415Z,99827.78
2023-02-22T20:27:10.179Z,99819.75
2023-02-22T20:29:38.765Z,99826.00
2023-02-22T20:32:09.326Z,99822.53
2023-02-22T20:34:37.197Z,99819.03
2023-02-22T20:37:05.199Z,99816.34
2023-02-22T20:39:32.904Z,99814.56
2023-02-22T20:42:03.495Z,99819.03
2023-02-22T20:44:31.374Z,99819.41
2023-02-22T20:46:59.024Z,99817.25
2023-02-22T20:49:27.255Z,99819.91
2023-02-22T20:51:54.893Z,99813.41
2023-02-22T20:54:22.387Z,99811.09
2023-02-22T20:56:52.624Z,99824.06
2023-02-22T20:59:22.034Z,99815.50
2023-02-22T21:01:50.305Z,99818.56
2023-02-22T21:04:18.236Z,99824.06
2023-02-22T21:06:46.636Z,99819.09
2023-02-22T21:09:16.142Z,99817.84
2023-02-22T21:11:43.757Z,99815.88
2023-02-22T21:14:12.341Z,99814.22
2023-02-22T21:16:41.180Z,99813.28
2023-02-22T21:19:08.823Z,99806.22
2023-02-22T21:21:36.621Z,99805.91
2023-02-22T21:24:04.623Z,99814.94
2023-02-22T21:26:33.784Z,99805.94
2023-02-22T21:29:03.352Z,99805.66
2023-02-22T21:31:32.238Z,99806.03
2023-02-22T21:34:01.975Z,99802.31
2023-02-22T21:36:29.936Z,99798.47
2023-02-22T21:38:59.011Z,99798.41
2023-02-22T21:41:28.932Z,99804.84
2023-02-22T21:43:57.898Z,99799.69
2023-02-22T21:46:26.378Z,99799.56
2023-02-22T21:48:53.915Z,99794.84
2023-02-22T21:51:25.324Z,99790.44
2023-02-22T21:53:54.937Z,99791.06
2023-02-22T21:56:27.201Z,99795.06
2023-02-22T21:58:58.969Z,99785.19
2023-02-22T22:01:28.354Z,99792.53
2023-02-22T22:03:59.456Z,99787.84
2023-02-22T22:06:29.689Z,99788.78
2023-02-22T22:08:57.781Z,99789.72
2023-02-22T22:11:25.437Z,99787.84
2023-02-22T22:13:56.975Z,99792.63
2023-02-22T22:16:26.381Z,99783.44
2023-02-22T22:18:54.790Z,99789.13
2023-02-22T22:21:24.012Z,99784.88
2023-02-22T22:23:55.908Z,99779.50
2023-02-22T22:26:24.745Z,99782.97
2023-02-22T22:28:54.554Z,99785.88
2023-02-22T22:31:24.108Z,99785.91
2023-02-22T22:33:51.855Z,99779.59
2023-02-22T22:36:21.482Z,99778.56
2023-02-22T22:38:49.074Z,99778.56
2023-02-22T22:41:19.982Z,99778.63
2023-02-22T22:43:48.176Z,99777.84
2023-02-22T22:46:17.415Z,99782.34
2023-02-22T22:48:47.149Z,99781.31
2023-02-22T22:51:18.102Z,99770.75
2023-02-22T22:53:47.638Z,99773.97
2023-02-22T22:56:18.532Z,99781.84
2023-02-22T22:58:49.268Z,99780.47
2023-02-22T23:01:19.735Z,99776.38
2023-02-22T23:03:55.689Z,99771.53
2023-02-22T23:06:27.286Z,99779.97
2023-02-22T23:09:00.073Z,99775.41
2023-02-22T23:11:29.527Z,99772.78
2023-02-22T23:13:57.598Z,99775.09
2023-02-22T23:16:25.616Z,99773.31
2023-02-22T23:18:53.157Z,99775.09
2023-02-22T23:21:24.218Z,99773.59
2023-02-22T23:23:53.311Z,99772.09
2023-02-22T23:26:20.826Z,99777.22
2023-02-22T23:28:52.377Z,99774.16
2023-02-22T23:31:20.454Z,99778.47
2023-02-22T23:33:49.138Z,99774.34
2023-02-22T23:36:17.376Z,99769.53
2023-02-22T23:38:45.453Z,99777.03
2023-02-22T23:41:16.361Z,99773.38
2023-02-22T23:43:45.362Z,99782.22
2023-02-22T23:46:18.560Z,99777.88
2023-02-22T23:48:50.819Z,99777.47
2023-02-22T23:51:20.569Z,99783.44
2023-02-22T23:53:49.493Z,99776.53
2023-02-22T23:56:19.022Z,99778.59
2023-02-22T23:58:49.860Z,99772.63
